createdAt,value
2018-10-12T00:01:05.514Z,10.05
2018-10-12T00:03:35.242Z,11.00
2018-10-12T00:06:05.053Z,10.53
2018-10-12T00:08:35.308Z,10.35
2018-10-12T00:11:05.198Z,11.15
2018-10-12T00:13:35.413Z,10.78
2018-10-12T00:16:05.397Z,11.43
2018-10-12T00:18:35.413Z,11.13
2018-10-12T00:21:05.261Z,11.05
2018-10-12T00:23:35.259Z,11.50
2018-10-12T00:26:04.637Z,10.43
2018-10-12T00:28:34.925Z,10.20
2018-10-12T00:31:04.803Z,10.60
2018-10-12T00:33:34.316Z,9.20
2018-10-12T00:36:03.674Z,11.10
2018-10-12T00:38:33.264Z,14.93
2018-10-12T00:41:02.637Z,12.60
2018-10-12T00:43:32.049Z,10.30
2018-10-12T00:46:01.641Z,9.53
2018-10-12T00:48:31.221Z,10.30
2018-10-12T00:51:00.797Z,11.50
2018-10-12T00:53:30.404Z,10.30
2018-10-12T00:56:00.045Z,10.18
2018-10-12T00:58:29.570Z,9.83
2018-10-12T01:00:58.934Z,12.10
2018-10-12T01:03:28.292Z,9.83
2018-10-12T01:05:57.697Z,9.57
2018-10-12T01:08:27.107Z,14.77
2018-10-12T01:10:56.447Z,9.20
2018-10-12T01:13:25.600Z,10.87
2018-10-12T01:15:55.009Z,12.50
2018-10-12T01:18:24.368Z,10.03
2018-10-12T01:20:53.750Z,9.90
2018-10-12T01:23:23.094Z,10.57
2018-10-12T01:25:52.206Z,9.23
2018-10-12T01:28:21.373Z,11.47
2018-10-12T01:30:50.757Z,9.30
2018-10-12T01:33:20.337Z,9.90
2018-10-12T01:35:49.947Z,10.47
2018-10-12T01:38:19.288Z,9.30
2018-10-12T01:40:48.661Z,9.50
2018-10-12T01:43:18.417Z,8.43
2018-10-12T01:45:47.540Z,9.93
2018-10-12T01:48:16.657Z,9.83
2018-10-12T01:50:45.779Z,10.13
2018-10-12T01:53:15.150Z,12.17
2018-10-12T01:55:44.490Z,9.93
2018-10-12T01:58:13.832Z,9.03
2018-10-12T02:03:20.414Z,10.30
2018-10-12T02:05:50.016Z,10.23
2018-10-12T02:08:19.367Z,9.50
2018-10-12T02:10:48.706Z,9.90
2018-10-12T02:13:18.288Z,9.33
2018-10-12T02:15:47.608Z,9.63
2018-10-12T02:18:16.759Z,9.10
2018-10-12T02:20:45.880Z,10.48
2018-10-12T02:23:15.251Z,9.67
2018-10-12T02:25:44.596Z,9.43
2018-10-12T02:28:13.954Z,8.83
2018-10-12T02:30:43.508Z,9.93
2018-10-12T02:33:12.834Z,9.00
2018-10-12T02:35:41.963Z,10.60
2018-10-12T02:38:11.439Z,9.10
2018-10-12T02:40:40.865Z,8.93
2018-10-12T02:43:10.219Z,8.68
2018-10-12T02:45:39.812Z,8.88
2018-10-12T02:48:09.175Z,8.43
2018-10-12T02:50:38.592Z,9.17
2018-10-12T02:53:08.195Z,9.40
2018-10-12T02:55:37.532Z,9.70
2018-10-12T02:58:06.883Z,9.10
2018-10-12T03:00:36.641Z,7.83
2018-10-12T03:03:06.195Z,8.37
2018-10-12T03:05:35.581Z,11.05
2018-10-12T03:08:05.182Z,10.63
2018-10-12T03:10:35.149Z,9.43
2018-10-12T03:13:05.317Z,8.88
2018-10-12T03:15:35.730Z,9.00
2018-10-12T03:18:05.280Z,10.58
2018-10-12T03:20:34.647Z,8.80
2018-10-12T03:23:03.966Z,8.80
2018-10-12T03:25:33.108Z,8.27
2018-10-12T03:28:07.747Z,9.10
2018-10-12T03:30:36.870Z,9.10
2018-10-12T03:33:06.408Z,9.23
2018-10-12T03:35:36.063Z,8.78
2018-10-12T03:38:05.766Z,9.40
2018-10-12T03:40:35.129Z,8.17
2018-10-12T03:43:04.472Z,8.40
2018-10-12T03:45:33.824Z,8.50
2018-10-12T03:48:03.365Z,8.50
2018-10-12T03:50:32.681Z,9.33
2018-10-12T03:53:02.038Z,8.17
2018-10-12T03:55:31.625Z,7.10
2018-10-12T03:58:00.957Z,8.97
2018-10-12T04:00:30.360Z,8.63
2018-10-12T04:02:59.953Z,7.47
2018-10-12T04:05:29.556Z,8.10
2018-10-12T04:07:58.677Z,9.10
2018-10-12T04:10:27.950Z,8.50
2018-10-12T04:12:57.295Z,7.83
2018-10-12T04:15:26.881Z,9.20
2018-10-12T04:17:56.463Z,7.33
2018-10-12T04:20:26.037Z,8.73
2018-10-12T04:22:55.608Z,9.90
2018-10-12T04:25:24.942Z,7.67
2018-10-12T04:27:54.356Z,7.57
2018-10-12T04:30:23.705Z,7.50
2018-10-12T04:32:52.973Z,7.90
2018-10-12T04:35:22.327Z,9.23
2018-10-12T04:37:51.659Z,8.23
2018-10-12T04:41:26.521Z,8.00
2018-10-12T04:43:57.069Z,8.80
2018-10-12T04:46:36.051Z,7.80
2018-10-12T04:49:07.175Z,8.70
2018-10-12T04:51:38.694Z,8.17
2018-10-12T04:54:08.549Z,9.13
2018-10-12T04:56:38.230Z,8.60
2018-10-12T04:59:08.113Z,11.70
2018-10-12T05:01:37.946Z,7.20
2018-10-12T05:04:07.840Z,8.03
2018-10-12T05:06:37.179Z,9.87
2018-10-12T05:09:07.265Z,8.47
2018-10-12T05:11:36.655Z,7.30
2018-10-12T05:14:06.581Z,8.50
2018-10-12T05:16:36.082Z,8.83
2018-10-12T05:19:05.392Z,7.50
2018-10-12T05:21:34.540Z,8.53
2018-10-12T05:24:03.981Z,7.67
2018-10-12T05:26:33.138Z,9.07
2018-10-12T05:29:02.503Z,8.00
2018-10-12T05:31:32.061Z,8.07
2018-10-12T05:34:01.414Z,8.23
2018-10-12T05:36:31.660Z,7.80
2018-10-12T05:39:01.221Z,8.17
2018-10-12T05:41:30.562Z,8.30
2018-10-12T05:43:59.676Z,7.83
2018-10-12T05:46:29.236Z,8.20
2018-10-12T05:49:09.846Z,7.57
2018-10-12T05:51:40.311Z,8.20
2018-10-12T05:54:09.904Z,7.77
2018-10-12T05:56:40.566Z,7.87
2018-10-12T05:59:10.122Z,7.40
2018-10-12T06:01:40.113Z,7.50
2018-10-12T06:04:10.184Z,7.37
2018-10-12T06:06:40.164Z,10.08
2018-10-12T06:09:09.893Z,8.93
2018-10-12T06:11:39.740Z,7.50
2018-10-12T06:14:09.848Z,8.20
2018-10-12T06:16:39.360Z,7.53
2018-10-12T06:19:08.482Z,7.90
2018-10-12T06:21:37.980Z,12.30
2018-10-12T06:24:07.321Z,7.13
2018-10-12T06:26:36.685Z,14.60
2018-10-12T06:29:06.124Z,10.70
2018-10-12T06:31:35.246Z,13.10
2018-10-12T06:34:04.615Z,18.07
2018-10-12T06:36:34.195Z,11.03
2018-10-12T06:39:03.553Z,9.13
2018-10-12T06:41:33.069Z,10.07
2018-10-12T06:44:02.606Z,8.57
2018-10-12T06:46:31.864Z,9.67
2018-10-12T06:49:01.120Z,9.60
2018-10-12T06:51:30.698Z,9.97
2018-10-12T06:54:00.122Z,9.53
2018-10-12T06:56:29.168Z,9.57
2018-10-12T06:58:58.546Z,11.50
2018-10-12T07:01:28.221Z,15.50
2018-10-12T07:03:58.011Z,17.77
2018-10-12T07:06:27.617Z,16.20
2018-10-12T07:08:57.249Z,22.80
2018-10-12T07:11:26.921Z,38.47
2018-10-12T07:13:56.564Z,25.30
2018-10-12T07:16:25.880Z,28.53
2018-10-12T07:18:54.998Z,22.40
2018-10-12T07:21:24.369Z,21.83
2018-10-12T07:23:53.965Z,20.32
2018-10-12T07:26:23.312Z,22.43
2018-10-12T07:28:52.702Z,20.80
2018-10-12T07:31:22.327Z,27.73
2018-10-12T07:33:51.866Z,23.40
2018-10-12T07:36:21.206Z,23.80
2018-10-12T07:38:50.591Z,19.93
2018-10-12T07:41:19.960Z,22.03
2018-10-12T07:43:49.351Z,23.55
2018-10-12T07:46:18.942Z,22.43
2018-10-12T07:48:48.919Z,17.70
2018-10-12T07:51:18.053Z,27.67
2018-10-12T07:53:47.483Z,20.43
2018-10-12T07:56:16.858Z,24.40
2018-10-12T07:58:46.007Z,30.60
2018-10-12T08:01:15.130Z,21.87
2018-10-12T08:03:44.354Z,17.77
2018-10-12T08:06:14.093Z,24.60
2018-10-12T08:08:43.868Z,18.67
2018-10-12T08:11:13.534Z,24.95
2018-10-12T08:13:43.790Z,26.17
2018-10-12T08:16:14.159Z,37.17
2018-10-12T08:18:44.090Z,33.65
2018-10-12T08:21:14.021Z,32.67
2018-10-12T08:23:43.923Z,28.80
2018-10-12T08:26:14.155Z,41.00
2018-10-12T08:28:43.851Z,29.63
2018-10-12T08:31:13.241Z,27.63
2018-10-12T08:33:42.781Z,34.20
2018-10-12T08:36:12.983Z,31.33
2018-10-12T08:38:42.391Z,30.03
2018-10-12T08:41:11.773Z,37.37
2018-10-12T08:43:41.348Z,26.97
2018-10-12T08:46:10.909Z,28.97
2018-10-12T08:48:40.036Z,31.60
2018-10-12T08:51:09.178Z,33.83
2018-10-12T08:53:38.550Z,33.37
2018-10-12T08:56:08.129Z,38.53
2018-10-12T08:58:37.475Z,35.90
2018-10-12T09:01:06.945Z,29.80
2018-10-12T09:03:36.640Z,34.93
2018-10-12T09:06:05.993Z,29.10
2018-10-12T09:08:35.365Z,25.33
2018-10-12T09:11:04.956Z,32.63
2018-10-12T09:13:34.438Z,27.73
2018-10-12T09:16:03.802Z,28.30
2018-10-12T09:18:33.390Z,29.80
2018-10-12T09:21:02.971Z,37.57
2018-10-12T09:23:32.139Z,30.63
2018-10-12T09:26:01.515Z,35.00
2018-10-12T09:28:30.848Z,29.20
2018-10-12T09:31:00.229Z,30.93
2018-10-12T09:33:29.828Z,25.53
2018-10-12T09:35:59.202Z,28.95
2018-10-12T09:38:28.577Z,24.37
2018-10-12T09:40:57.976Z,27.10
2018-10-12T09:43:27.346Z,30.60
2018-10-12T09:45:56.998Z,26.07
2018-10-12T09:48:26.718Z,25.97
2018-10-12T09:50:55.842Z,25.60
2018-10-12T09:53:25.227Z,31.43
2018-10-12T09:55:54.831Z,20.37
2018-10-12T09:58:24.400Z,23.37
2018-10-12T10:00:59.703Z,25.17
2018-10-12T10:03:34.407Z,25.70
2018-10-12T10:06:03.775Z,24.13
2018-10-12T10:08:33.320Z,22.90
2018-10-12T10:11:02.930Z,25.00
2018-10-12T10:13:32.538Z,22.67
2018-10-12T10:16:02.316Z,21.53
2018-10-12T10:18:31.670Z,25.03
2018-10-12T10:21:01.016Z,23.70
2018-10-12T10:23:30.382Z,29.40
2018-10-12T10:25:59.524Z,25.80
2018-10-12T10:28:28.901Z,23.38
2018-10-12T10:30:58.410Z,19.43
2018-10-12T10:33:27.988Z,23.30
2018-10-12T10:35:57.325Z,15.63
2018-10-12T10:38:26.479Z,22.93
2018-10-12T10:40:55.856Z,26.03
2018-10-12T10:43:25.225Z,24.50
2018-10-12T10:45:54.612Z,22.83
2018-10-12T10:48:24.204Z,21.73
2018-10-12T10:50:53.771Z,20.13
2018-10-12T10:53:23.167Z,22.33
2018-10-12T10:55:52.867Z,17.87
2018-10-12T10:58:22.227Z,18.90
2018-10-12T11:00:51.669Z,16.67
2018-10-12T11:03:21.529Z,17.87
2018-10-12T11:05:51.101Z,19.50
2018-10-12T11:08:20.459Z,14.90
2018-10-12T11:10:49.812Z,15.10
2018-10-12T11:13:19.461Z,15.47
2018-10-12T11:15:49.237Z,21.53
2018-10-12T11:18:18.700Z,14.37
2018-10-12T11:20:48.830Z,13.87
2018-10-12T11:23:18.951Z,16.87
2018-10-12T11:25:48.339Z,19.07
2018-10-12T11:28:17.934Z,14.07
2018-10-12T11:30:47.506Z,12.97
2018-10-12T11:33:16.881Z,14.27
2018-10-12T11:35:46.243Z,14.53
2018-10-12T11:38:16.412Z,14.13
2018-10-12T11:40:45.722Z,16.10
2018-10-12T11:43:19.525Z,15.00
2018-10-12T11:45:49.409Z,13.73
2018-10-12T11:48:19.563Z,11.40
2018-10-12T11:50:50.092Z,11.90
2018-10-12T11:53:20.437Z,15.47
2018-10-12T11:55:50.110Z,13.67
2018-10-12T11:58:20.316Z,15.75
2018-10-12T12:00:50.248Z,15.50
2018-10-12T12:03:20.457Z,12.68
2018-10-12T12:05:50.383Z,10.70
2018-10-12T12:08:20.584Z,10.25
2018-10-12T12:10:50.525Z,16.77
2018-10-12T12:13:20.742Z,12.30
2018-10-12T12:15:50.676Z,14.87
2018-10-12T12:18:20.898Z,13.88
2018-10-12T12:20:50.785Z,11.53
2018-10-12T12:23:21.012Z,10.25
2018-10-12T12:25:50.935Z,13.50
2018-10-12T12:28:21.071Z,10.38
2018-10-12T12:30:50.677Z,16.62
2018-10-12T12:33:20.561Z,15.75
2018-10-12T12:35:51.237Z,12.23
2018-10-12T12:38:21.029Z,14.40
2018-10-12T12:40:51.841Z,11.60
2018-10-12T12:43:21.136Z,11.90
2018-10-12T12:45:50.535Z,9.70
2018-10-12T12:48:20.979Z,11.47
2018-10-12T12:50:50.142Z,11.30
2018-10-12T12:53:19.986Z,10.17
2018-10-12T12:55:49.692Z,10.50
2018-10-12T12:58:19.029Z,12.90
2018-10-12T13:00:48.424Z,10.80
2018-10-12T13:03:18.008Z,16.23
2018-10-12T13:05:47.301Z,11.27
2018-10-12T13:08:16.433Z,12.17
2018-10-12T13:10:45.826Z,13.60
2018-10-12T13:13:15.186Z,14.23
2018-10-12T13:15:44.344Z,11.00
2018-10-12T13:18:13.653Z,14.50
2018-10-12T13:20:43.018Z,11.47
2018-10-12T13:23:12.641Z,10.37
2018-10-12T13:25:42.334Z,10.17
2018-10-12T13:28:12.054Z,9.63
2018-10-12T13:30:41.383Z,11.23
2018-10-12T13:33:10.747Z,10.70
2018-10-12T13:35:40.191Z,9.43
2018-10-12T13:38:09.540Z,8.70
2018-10-12T13:40:38.884Z,9.53
2018-10-12T13:43:08.339Z,13.17
2018-10-12T13:45:37.466Z,9.10
2018-10-12T13:48:06.865Z,10.13
2018-10-12T13:50:36.485Z,9.93
2018-10-12T13:53:05.867Z,8.17
2018-10-12T13:55:35.029Z,8.93
2018-10-12T13:58:04.394Z,9.40
2018-10-12T14:00:33.748Z,14.28
2018-10-12T14:03:03.094Z,7.63
2018-10-12T14:05:32.427Z,14.53
2018-10-12T14:08:01.649Z,11.40
2018-10-12T14:10:31.018Z,9.53
2018-10-12T14:13:00.485Z,10.23
2018-10-12T14:15:29.830Z,10.03
2018-10-12T14:17:59.427Z,9.63
2018-10-12T14:20:29.343Z,8.70
2018-10-12T14:22:59.009Z,12.00
2018-10-12T14:25:28.353Z,8.77
2018-10-12T14:27:58.297Z,12.83
2018-10-12T14:30:27.651Z,10.07
2018-10-12T14:32:56.808Z,7.40
2018-10-12T14:35:26.185Z,10.80
2018-10-12T14:37:55.591Z,11.93
2018-10-12T14:40:25.640Z,11.40
2018-10-12T14:42:55.030Z,7.57
2018-10-12T14:45:25.006Z,8.90
2018-10-12T14:47:55.170Z,10.32
2018-10-12T14:50:25.395Z,7.15
2018-10-12T14:52:55.677Z,9.13
2018-10-12T14:55:25.301Z,7.93
2018-10-12T14:57:55.494Z,8.50
2018-10-12T15:00:25.672Z,7.40
2018-10-12T15:02:55.597Z,8.60
2018-10-12T15:05:25.344Z,11.67
2018-10-12T15:07:54.746Z,7.67
2018-10-12T15:10:24.427Z,7.17
2018-10-12T15:12:54.005Z,11.23
2018-10-12T15:15:29.309Z,9.10
2018-10-12T15:17:59.390Z,7.23
2018-10-12T15:20:28.985Z,7.87
2018-10-12T15:22:58.573Z,6.90
2018-10-12T15:25:27.955Z,7.13
2018-10-12T15:27:57.273Z,8.77
2018-10-12T15:30:26.881Z,6.57
2018-10-12T15:32:56.225Z,5.93
2018-10-12T15:35:25.573Z,7.20
2018-10-12T15:37:54.907Z,6.53
2018-10-12T15:40:24.890Z,6.43
2018-10-12T15:42:54.586Z,8.00
2018-10-12T15:45:24.064Z,6.77
2018-10-12T15:47:53.089Z,7.13
2018-10-12T15:50:22.447Z,6.90
2018-10-12T15:52:51.950Z,6.60
2018-10-12T15:55:21.235Z,6.77
2018-10-12T15:57:50.639Z,7.73
2018-10-12T16:00:20.226Z,6.20
2018-10-12T16:02:49.794Z,6.43
2018-10-12T16:05:19.142Z,8.30
2018-10-12T16:07:48.849Z,17.63
2018-10-12T16:10:18.286Z,5.93
2018-10-12T16:12:47.848Z,6.17
2018-10-12T16:15:16.951Z,9.40
2018-10-12T16:17:46.096Z,5.93
2018-10-12T16:20:15.455Z,6.28
2018-10-12T16:22:45.432Z,6.93
2018-10-12T16:25:26.015Z,7.40
2018-10-12T16:27:55.552Z,9.53
2018-10-12T16:30:25.005Z,5.73
2018-10-12T16:32:54.338Z,6.53
2018-10-12T16:35:23.472Z,5.30
2018-10-12T16:37:52.810Z,5.07
2018-10-12T16:40:22.161Z,5.50
2018-10-12T16:42:51.293Z,6.23
2018-10-12T16:45:20.416Z,5.67
2018-10-12T16:47:50.109Z,5.70
2018-10-12T16:50:19.377Z,6.50
2018-10-12T16:52:48.498Z,6.83
2018-10-12T16:55:17.850Z,9.20
2018-10-12T16:57:47.277Z,5.03
2018-10-12T17:00:16.618Z,6.10
2018-10-12T17:02:46.192Z,6.87
2018-10-12T17:05:15.788Z,12.50
2018-10-12T17:07:45.437Z,5.40
2018-10-12T17:10:14.586Z,6.53
2018-10-12T17:12:43.763Z,10.03
2018-10-12T17:15:13.083Z,6.13
2018-10-12T17:17:42.651Z,5.10
2018-10-12T17:20:11.993Z,8.50
2018-10-12T17:22:41.508Z,5.72
2018-10-12T17:25:10.863Z,4.90
2018-10-12T17:27:40.250Z,7.80
2018-10-12T17:30:09.626Z,7.80
2018-10-12T17:32:39.213Z,5.50
2018-10-12T17:35:08.792Z,5.97
2018-10-12T17:37:38.664Z,6.00
2018-10-12T17:40:08.406Z,7.50
2018-10-12T17:42:37.764Z,6.20
2018-10-12T17:45:07.905Z,5.37
2018-10-12T17:47:37.020Z,6.00
2018-10-12T17:50:06.962Z,4.83
2018-10-12T17:52:36.300Z,5.57
2018-10-12T17:55:06.186Z,4.95
2018-10-12T17:57:35.511Z,5.90
2018-10-12T18:00:05.074Z,8.83
2018-10-12T18:02:34.072Z,6.50
2018-10-12T18:05:03.186Z,6.93
2018-10-12T18:07:32.310Z,5.30
2018-10-12T18:10:01.420Z,6.60
2018-10-12T18:12:30.775Z,4.80
2018-10-12T18:15:00.325Z,4.73
2018-10-12T18:17:29.807Z,5.27
2018-10-12T18:20:01.698Z,4.47
2018-10-12T18:22:31.051Z,4.80
2018-10-12T18:25:00.404Z,7.77
2018-10-12T18:27:29.769Z,5.67
2018-10-12T18:29:59.358Z,3.60
2018-10-12T18:32:29.210Z,4.57
2018-10-12T18:34:59.461Z,6.40
2018-10-12T18:37:28.838Z,4.40
2018-10-12T18:39:58.196Z,4.77
2018-10-12T18:42:27.572Z,4.73
2018-10-12T18:44:57.340Z,4.53
2018-10-12T18:47:26.712Z,6.00
2018-10-12T18:49:56.381Z,4.03
2018-10-12T18:52:25.514Z,4.00
2018-10-12T18:54:54.636Z,4.50
2018-10-12T18:57:23.978Z,4.07
2018-10-12T18:59:53.753Z,4.90
2018-10-12T19:02:22.882Z,4.10
2018-10-12T19:04:52.306Z,4.50
2018-10-12T19:07:21.850Z,4.07
2018-10-12T19:09:51.399Z,5.30
2018-10-12T19:12:20.989Z,3.97
2018-10-12T19:14:50.646Z,5.27
2018-10-12T19:17:20.224Z,4.08
2018-10-12T19:19:49.827Z,4.53
2018-10-12T19:22:19.546Z,3.77
2018-10-12T19:24:48.688Z,4.33
2018-10-12T19:27:18.086Z,4.47
2018-10-12T19:29:47.655Z,4.60
2018-10-12T19:32:16.990Z,4.47
2018-10-12T19:34:46.356Z,4.17
2018-10-12T19:37:15.699Z,3.80
2018-10-12T19:39:45.062Z,4.50
2018-10-12T19:42:14.705Z,3.50
2018-10-12T19:44:43.886Z,4.30
2018-10-12T19:47:13.268Z,5.93
2018-10-12T19:49:42.861Z,4.63
2018-10-12T19:52:12.193Z,3.67
2018-10-12T19:54:41.581Z,4.10
2018-10-12T19:57:11.212Z,3.83
2018-10-12T19:59:40.557Z,3.90
2018-10-12T20:02:10.353Z,3.20
2018-10-12T20:04:39.921Z,5.03
2018-10-12T20:07:09.262Z,3.43
2018-10-12T20:09:38.639Z,3.53
2018-10-12T20:12:08.265Z,6.37
2018-10-12T20:14:37.594Z,3.87
2018-10-12T20:17:06.749Z,3.80
2018-10-12T20:19:36.159Z,3.63
2018-10-12T20:22:08.423Z,4.00
2018-10-12T20:24:38.216Z,4.60
2018-10-12T20:27:07.357Z,4.37
2018-10-12T20:29:36.492Z,4.20
2018-10-12T20:32:06.142Z,4.07
2018-10-12T20:34:35.709Z,3.70
2018-10-12T20:37:06.118Z,4.03
2018-10-12T20:39:35.440Z,4.00
2018-10-12T20:42:04.559Z,3.47
2018-10-12T20:44:33.709Z,3.93
2018-10-12T20:47:03.078Z,3.55
2018-10-12T20:49:32.638Z,4.07
2018-10-12T20:52:02.212Z,3.93
2018-10-12T20:54:31.553Z,3.27
2018-10-12T20:57:01.437Z,3.97
2018-10-12T20:59:31.232Z,3.10
2018-10-12T21:02:01.098Z,3.47
2018-10-12T21:04:30.469Z,3.70
2018-10-12T21:06:59.804Z,3.03
2018-10-12T21:09:29.169Z,4.00
2018-10-12T21:11:58.780Z,3.70
2018-10-12T21:14:28.264Z,3.53
2018-10-12T21:16:57.655Z,3.13
2018-10-12T21:19:26.980Z,3.57
2018-10-12T21:21:56.189Z,3.37
2018-10-12T21:24:25.558Z,3.77
2018-10-12T21:26:54.903Z,4.00
2018-10-12T21:29:24.004Z,4.17
2018-10-12T21:31:53.135Z,3.33
2018-10-12T21:34:22.245Z,2.90
2018-10-12T21:36:51.369Z,3.43
2018-10-12T21:39:20.728Z,3.03
2018-10-12T21:41:50.058Z,3.53
2018-10-12T21:44:19.421Z,4.43
2018-10-12T21:46:49.127Z,3.50
2018-10-12T21:49:18.351Z,7.65
2018-10-12T21:51:47.729Z,3.50
2018-10-12T21:54:17.069Z,3.40
2018-10-12T21:56:46.422Z,4.23
2018-10-12T21:59:15.760Z,4.43
2018-10-12T22:01:45.125Z,3.62
2018-10-12T22:04:14.762Z,5.60
2018-10-12T22:06:44.340Z,5.17
2018-10-12T22:09:13.944Z,3.85
2018-10-12T22:11:43.284Z,3.20
2018-10-12T22:14:12.661Z,3.37
2018-10-12T22:16:41.982Z,4.07
2018-10-12T22:19:11.415Z,3.53
2018-10-12T22:21:41.277Z,2.95
2018-10-12T22:24:10.612Z,3.60
2018-10-12T22:26:39.974Z,3.40
2018-10-12T22:29:09.576Z,3.17
2018-10-12T22:31:38.920Z,3.50
2018-10-12T22:34:08.437Z,3.52
2018-10-12T22:36:38.031Z,4.33
2018-10-12T22:39:08.112Z,3.53
2018-10-12T22:41:37.254Z,3.40
2018-10-12T22:44:06.840Z,3.00
2018-10-12T22:46:36.197Z,2.90
2018-10-12T22:49:05.552Z,3.43
2018-10-12T22:51:35.178Z,5.00
2018-10-12T22:54:04.747Z,2.80
2018-10-12T22:56:34.322Z,3.13
2018-10-12T22:59:03.680Z,3.20
2018-10-12T23:01:33.530Z,4.07
2018-10-12T23:04:03.744Z,2.75
2018-10-12T23:06:33.685Z,3.27
2018-10-12T23:09:04.200Z,3.30
2018-10-12T23:11:33.802Z,3.50
2018-10-12T23:14:03.478Z,4.73
2018-10-12T23:16:33.332Z,3.47
2018-10-12T23:19:02.702Z,3.00
2018-10-12T23:21:32.953Z,2.90
2018-10-12T23:24:02.300Z,3.03
2018-10-12T23:26:31.643Z,3.30
2018-10-12T23:29:00.999Z,4.17
2018-10-12T23:31:30.355Z,2.80
2018-10-12T23:34:04.078Z,3.43
2018-10-12T23:36:34.161Z,3.50
2018-10-12T23:39:05.348Z,3.20
2018-10-12T23:41:34.819Z,2.90
2018-10-12T23:44:04.157Z,3.17
2018-10-12T23:46:34.332Z,3.37
2018-10-12T23:49:04.167Z,2.90
2018-10-12T23:51:34.683Z,2.80
2018-10-12T23:54:04.513Z,3.37
2018-10-12T23:56:34.413Z,3.58
2018-10-12T23:59:04.415Z,3.23
